sensor_id;sensor_type;location;lat;lon;timestamp;temperature;humidity
19050;DHT22;9657;45.940;12.840;2023-07-13T00:01:52;31.00;56.80
19050;DHT22;9657;45.940;12.840;2023-07-13T00:04:20;31.10;56.80
19050;DHT22;9657;45.940;12.840;2023-07-13T00:06:48;31.00;56.70
19050;DHT22;9657;45.940;12.840;2023-07-13T00:09:18;31.00;56.80
19050;DHT22;9657;45.940;12.840;2023-07-13T00:11:45;31.10;56.80
19050;DHT22;9657;45.940;12.840;2023-07-13T00:14:13;31.10;56.80
19050;DHT22;9657;45.940;12.840;2023-07-13T00:16:41;31.00;56.80
19050;DHT22;9657;45.940;12.840;2023-07-13T00:19:09;31.00;56.70
19050;DHT22;9657;45.940;12.840;2023-07-13T00:21:37;31.00;56.30
19050;DHT22;9657;45.940;12.840;2023-07-13T00:24:05;31.00;56.10
19050;DHT22;9657;45.940;12.840;2023-07-13T00:26:33;31.00;56.00
19050;DHT22;9657;45.940;12.840;2023-07-13T00:29:00;31.00;55.90
19050;DHT22;9657;45.940;12.840;2023-07-13T00:31:27;31.00;55.80
19050;DHT22;9657;45.940;12.840;2023-07-13T00:33:54;31.00;55.70
19050;DHT22;9657;45.940;12.840;2023-07-13T00:36:21;31.00;55.70
19050;DHT22;9657;45.940;12.840;2023-07-13T00:38:48;31.00;55.70
19050;DHT22;9657;45.940;12.840;2023-07-13T00:41:15;31.00;55.70
19050;DHT22;9657;45.940;12.840;2023-07-13T00:43:44;30.90;55.60
19050;DHT22;9657;45.940;12.840;2023-07-13T00:46:19;30.90;55.60
19050;DHT22;9657;45.940;12.840;2023-07-13T00:48:48;30.90;55.60
19050;DHT22;9657;45.940;12.840;2023-07-13T00:51:19;30.90;55.60
19050;DHT22;9657;45.940;12.840;2023-07-13T00:53:47;30.90;55.60
19050;DHT22;9657;45.940;12.840;2023-07-13T00:56:15;30.90;55.50
19050;DHT22;9657;45.940;12.840;2023-07-13T00:58:43;30.90;55.50
19050;DHT22;9657;45.940;12.840;2023-07-13T01:03:46;30.90;55.60
19050;DHT22;9657;45.940;12.840;2023-07-13T01:06:13;30.90;55.60
19050;DHT22;9657;45.940;12.840;2023-07-13T01:08:42;30.90;55.60
19050;DHT22;9657;45.940;12.840;2023-07-13T01:11:09;30.90;55.60
19050;DHT22;9657;45.940;12.840;2023-07-13T01:13:36;30.90;55.60
19050;DHT22;9657;45.940;12.840;2023-07-13T01:16:13;30.80;55.60
19050;DHT22;9657;45.940;12.840;2023-07-13T01:18:41;30.80;55.50
19050;DHT22;9657;45.940;12.840;2023-07-13T01:21:09;30.80;55.50
19050;DHT22;9657;45.940;12.840;2023-07-13T01:23:36;30.90;55.60
19050;DHT22;9657;45.940;12.840;2023-07-13T01:26:03;30.90;55.60
19050;DHT22;9657;45.940;12.840;2023-07-13T01:28:30;30.90;55.60
19050;DHT22;9657;45.940;12.840;2023-07-13T01:31:03;30.80;55.60
19050;DHT22;9657;45.940;12.840;2023-07-13T01:33:30;30.90;55.60
19050;DHT22;9657;45.940;12.840;2023-07-13T01:35:57;30.80;55.50
19050;DHT22;9657;45.940;12.840;2023-07-13T01:38:26;30.80;55.50
19050;DHT22;9657;45.940;12.840;2023-07-13T01:40:53;30.80;55.50
19050;DHT22;9657;45.940;12.840;2023-07-13T01:43:20;30.80;55.40
19050;DHT22;9657;45.940;12.840;2023-07-13T01:45:48;30.80;55.40
19050;DHT22;9657;45.940;12.840;2023-07-13T01:48:15;30.80;55.40
19050;DHT22;9657;45.940;12.840;2023-07-13T01:50:42;30.80;55.40
19050;DHT22;9657;45.940;12.840;2023-07-13T01:53:09;30.80;55.40
19050;DHT22;9657;45.940;12.840;2023-07-13T01:55:38;30.80;55.40
19050;DHT22;9657;45.940;12.840;2023-07-13T01:58:05;30.80;55.40
19050;DHT22;9657;45.940;12.840;2023-07-13T02:00:32;30.80;55.30
19050;DHT22;9657;45.940;12.840;2023-07-13T02:02:59;30.80;55.40
19050;DHT22;9657;45.940;12.840;2023-07-13T02:05:26;30.80;55.30
19050;DHT22;9657;45.940;12.840;2023-07-13T02:07:54;30.70;55.30
19050;DHT22;9657;45.940;12.840;2023-07-13T02:10:21;30.70;55.30
19050;DHT22;9657;45.940;12.840;2023-07-13T02:12:50;30.80;55.30
19050;DHT22;9657;45.940;12.840;2023-07-13T02:15:18;30.80;55.30
19050;DHT22;9657;45.940;12.840;2023-07-13T02:17:45;30.70;55.30
19050;DHT22;9657;45.940;12.840;2023-07-13T02:20:12;30.80;55.30
19050;DHT22;9657;45.940;12.840;2023-07-13T02:22:39;30.70;55.30
19050;DHT22;9657;45.940;12.840;2023-07-13T02:25:06;30.70;55.30
19050;DHT22;9657;45.940;12.840;2023-07-13T02:27:33;30.70;55.30
19050;DHT22;9657;45.940;12.840;2023-07-13T02:30:02;30.70;55.30
19050;DHT22;9657;45.940;12.840;2023-07-13T02:32:29;30.70;55.30
19050;DHT22;9657;45.940;12.840;2023-07-13T02:34:56;30.70;55.30
19050;DHT22;9657;45.940;12.840;2023-07-13T02:37:23;30.70;55.30
19050;DHT22;9657;45.940;12.840;2023-07-13T02:39:50;30.60;55.30
19050;DHT22;9657;45.940;12.840;2023-07-13T02:42:17;30.60;55.30
19050;DHT22;9657;45.940;12.840;2023-07-13T02:44:44;30.70;55.30
19050;DHT22;9657;45.940;12.840;2023-07-13T02:47:13;30.60;55.30
19050;DHT22;9657;45.940;12.840;2023-07-13T02:49:40;30.60;55.30
19050;DHT22;9657;45.940;12.840;2023-07-13T02:52:07;30.60;55.30
19050;DHT22;9657;45.940;12.840;2023-07-13T02:54:34;30.70;55.30
19050;DHT22;9657;45.940;12.840;2023-07-13T02:57:01;30.70;55.30
19050;DHT22;9657;45.940;12.840;2023-07-13T02:59:28;30.60;55.30
19050;DHT22;9657;45.940;12.840;2023-07-13T03:01:56;30.60;55.30
19050;DHT22;9657;45.940;12.840;2023-07-13T03:04:24;30.60;55.30
19050;DHT22;9657;45.940;12.840;2023-07-13T03:06:51;30.60;55.30
19050;DHT22;9657;45.940;12.840;2023-07-13T03:09:18;30.60;55.30
19050;DHT22;9657;45.940;12.840;2023-07-13T03:11:45;30.60;55.30
19050;DHT22;9657;45.940;12.840;2023-07-13T03:14:12;30.60;55.40
19050;DHT22;9657;45.940;12.840;2023-07-13T03:16:40;30.60;55.40
19050;DHT22;9657;45.940;12.840;2023-07-13T03:19:07;30.60;55.40
19050;DHT22;9657;45.940;12.840;2023-07-13T03:21:36;30.60;55.40
19050;DHT22;9657;45.940;12.840;2023-07-13T03:24:03;30.60;55.40
19050;DHT22;9657;45.940;12.840;2023-07-13T03:26:30;30.60;55.40
19050;DHT22;9657;45.940;12.840;2023-07-13T03:28:57;30.60;55.40
19050;DHT22;9657;45.940;12.840;2023-07-13T03:31:26;30.60;55.40
19050;DHT22;9657;45.940;12.840;2023-07-13T03:33:54;30.60;55.40
19050;DHT22;9657;45.940;12.840;2023-07-13T03:36:24;30.60;55.50
19050;DHT22;9657;45.940;12.840;2023-07-13T03:38:56;30.50;55.40
19050;DHT22;9657;45.940;12.840;2023-07-13T03:41:24;30.60;55.50
19050;DHT22;9657;45.940;12.840;2023-07-13T03:43:52;30.50;55.50
19050;DHT22;9657;45.940;12.840;2023-07-13T03:46:19;30.60;55.50
19050;DHT22;9657;45.940;12.840;2023-07-13T03:48:47;30.50;55.40
19050;DHT22;9657;45.940;12.840;2023-07-13T03:51:16;30.60;55.40
19050;DHT22;9657;45.940;12.840;2023-07-13T03:53:45;30.50;55.30
19050;DHT22;9657;45.940;12.840;2023-07-13T03:56:14;30.50;55.20
19050;DHT22;9657;45.940;12.840;2023-07-13T03:58:43;30.50;55.10
19050;DHT22;9657;45.940;12.840;2023-07-13T04:01:11;30.50;55.10
19050;DHT22;9657;45.940;12.840;2023-07-13T04:03:38;30.50;55.00
19050;DHT22;9657;45.940;12.840;2023-07-13T04:06:14;30.50;54.90
19050;DHT22;9657;45.940;12.840;2023-07-13T04:08:47;30.50;54.80
19050;DHT22;9657;45.940;12.840;2023-07-13T04:11:16;30.50;54.70
19050;DHT22;9657;45.940;12.840;2023-07-13T04:13:43;30.50;54.60
19050;DHT22;9657;45.940;12.840;2023-07-13T04:16:10;30.50;54.60
19050;DHT22;9657;45.940;12.840;2023-07-13T04:18:37;30.50;54.50
19050;DHT22;9657;45.940;12.840;2023-07-13T04:21:04;30.50;54.40
19050;DHT22;9657;45.940;12.840;2023-07-13T04:23:31;30.50;54.40
19050;DHT22;9657;45.940;12.840;2023-07-13T04:25:58;30.40;54.20
19050;DHT22;9657;45.940;12.840;2023-07-13T04:28:27;30.50;54.30
19050;DHT22;9657;45.940;12.840;2023-07-13T04:30:54;30.40;54.20
19050;DHT22;9657;45.940;12.840;2023-07-13T04:33:22;30.40;54.20
19050;DHT22;9657;45.940;12.840;2023-07-13T04:35:49;30.40;54.20
19050;DHT22;9657;45.940;12.840;2023-07-13T04:38:20;30.40;54.20
19050;DHT22;9657;45.940;12.840;2023-07-13T04:40:47;30.40;54.20
19050;DHT22;9657;45.940;12.840;2023-07-13T04:43:14;30.30;54.10
19050;DHT22;9657;45.940;12.840;2023-07-13T04:45:43;30.30;54.10
19050;DHT22;9657;45.940;12.840;2023-07-13T04:48:10;30.40;54.20
19050;DHT22;9657;45.940;12.840;2023-07-13T04:50:37;30.40;54.20
19050;DHT22;9657;45.940;12.840;2023-07-13T04:53:05;30.30;54.10
19050;DHT22;9657;45.940;12.840;2023-07-13T04:55:32;30.30;54.10
19050;DHT22;9657;45.940;12.840;2023-07-13T04:57:59;30.40;54.20
19050;DHT22;9657;45.940;12.840;2023-07-13T05:00:26;30.30;54.10
19050;DHT22;9657;45.940;12.840;2023-07-13T05:02:56;30.30;54.20
19050;DHT22;9657;45.940;12.840;2023-07-13T05:05:25;30.30;54.20
19050;DHT22;9657;45.940;12.840;2023-07-13T05:07:53;30.30;54.20
19050;DHT22;9657;45.940;12.840;2023-07-13T05:10:20;30.30;54.20
19050;DHT22;9657;45.940;12.840;2023-07-13T05:12:48;30.30;54.20
19050;DHT22;9657;45.940;12.840;2023-07-13T05:15:15;30.30;54.20
19050;DHT22;9657;45.940;12.840;2023-07-13T05:17:46;30.30;54.30
19050;DHT22;9657;45.940;12.840;2023-07-13T05:20:16;30.30;54.30
19050;DHT22;9657;45.940;12.840;2023-07-13T05:22:43;30.30;54.30
19050;DHT22;9657;45.940;12.840;2023-07-13T05:25:12;30.30;55.00
19050;DHT22;9657;45.940;12.840;2023-07-13T05:27:40;30.30;54.30
19050;DHT22;9657;45.940;12.840;2023-07-13T05:30:07;30.30;54.30
19050;DHT22;9657;45.940;12.840;2023-07-13T05:32:36;30.30;54.30
19050;DHT22;9657;45.940;12.840;2023-07-13T05:35:04;30.30;54.40
19050;DHT22;9657;45.940;12.840;2023-07-13T05:37:33;30.30;54.30
19050;DHT22;9657;45.940;12.840;2023-07-13T05:40:00;30.30;54.30
19050;DHT22;9657;45.940;12.840;2023-07-13T05:42:27;30.30;54.40
19050;DHT22;9657;45.940;12.840;2023-07-13T05:44:56;30.30;54.40
19050;DHT22;9657;45.940;12.840;2023-07-13T05:47:23;30.20;54.30
19050;DHT22;9657;45.940;12.840;2023-07-13T05:49:50;30.30;54.40
19050;DHT22;9657;45.940;12.840;2023-07-13T05:52:17;30.30;54.40
19050;DHT22;9657;45.940;12.840;2023-07-13T05:54:46;30.20;54.40
19050;DHT22;9657;45.940;12.840;2023-07-13T05:57:13;30.20;54.40
19050;DHT22;9657;45.940;12.840;2023-07-13T05:59:40;30.20;54.40
19050;DHT22;9657;45.940;12.840;2023-07-13T06:02:08;30.20;54.40
19050;DHT22;9657;45.940;12.840;2023-07-13T06:04:36;30.20;54.50
19050;DHT22;9657;45.940;12.840;2023-07-13T06:07:03;30.20;54.50
19050;DHT22;9657;45.940;12.840;2023-07-13T06:09:30;30.30;54.60
19050;DHT22;9657;45.940;12.840;2023-07-13T06:11:59;30.20;54.60
19050;DHT22;9657;45.940;12.840;2023-07-13T06:14:26;30.20;54.60
19050;DHT22;9657;45.940;12.840;2023-07-13T06:16:53;30.20;54.70
19050;DHT22;9657;45.940;12.840;2023-07-13T06:19:20;30.20;54.70
19050;DHT22;9657;45.940;12.840;2023-07-13T06:21:47;30.20;54.80
19050;DHT22;9657;45.940;12.840;2023-07-13T06:24:14;30.20;54.80
19050;DHT22;9657;45.940;12.840;2023-07-13T06:26:41;30.20;54.80
19050;DHT22;9657;45.940;12.840;2023-07-13T06:29:09;30.20;54.90
19050;DHT22;9657;45.940;12.840;2023-07-13T06:31:36;30.20;54.90
19050;DHT22;9657;45.940;12.840;2023-07-13T06:34:03;30.20;55.00
19050;DHT22;9657;45.940;12.840;2023-07-13T06:36:30;30.20;55.00
19050;DHT22;9657;45.940;12.840;2023-07-13T06:38:57;30.20;55.00
19050;DHT22;9657;45.940;12.840;2023-07-13T06:41:24;30.20;55.00
19050;DHT22;9657;45.940;12.840;2023-07-13T06:43:52;30.20;55.00
19050;DHT22;9657;45.940;12.840;2023-07-13T06:46:22;30.20;55.00
19050;DHT22;9657;45.940;12.840;2023-07-13T06:48:49;30.20;55.10
19050;DHT22;9657;45.940;12.840;2023-07-13T06:51:17;30.20;55.00
19050;DHT22;9657;45.940;12.840;2023-07-13T06:53:44;30.20;55.00
19050;DHT22;9657;45.940;12.840;2023-07-13T06:56:11;30.20;54.90
19050;DHT22;9657;45.940;12.840;2023-07-13T06:58:38;30.20;55.00
19050;DHT22;9657;45.940;12.840;2023-07-13T07:01:05;30.20;54.90
19050;DHT22;9657;45.940;12.840;2023-07-13T07:03:34;30.20;54.90
19050;DHT22;9657;45.940;12.840;2023-07-13T07:06:10;30.20;54.90
19050;DHT22;9657;45.940;12.840;2023-07-13T07:08:38;30.20;54.90
19050;DHT22;9657;45.940;12.840;2023-07-13T07:11:08;30.20;54.80
19050;DHT22;9657;45.940;12.840;2023-07-13T07:13:35;30.20;54.90
19050;DHT22;9657;45.940;12.840;2023-07-13T07:16:02;30.20;54.80
19050;DHT22;9657;45.940;12.840;2023-07-13T07:18:29;30.20;54.80
19050;DHT22;9657;45.940;12.840;2023-07-13T07:20:57;30.20;54.80
19050;DHT22;9657;45.940;12.840;2023-07-13T07:23:24;30.20;54.90
19050;DHT22;9657;45.940;12.840;2023-07-13T07:25:51;30.20;54.80
19050;DHT22;9657;45.940;12.840;2023-07-13T07:28:19;30.20;54.80
19050;DHT22;9657;45.940;12.840;2023-07-13T07:30:46;30.20;54.80
19050;DHT22;9657;45.940;12.840;2023-07-13T07:33:14;30.20;54.80
19050;DHT22;9657;45.940;12.840;2023-07-13T07:35:42;30.20;54.80
19050;DHT22;9657;45.940;12.840;2023-07-13T07:38:11;30.20;54.80
19050;DHT22;9657;45.940;12.840;2023-07-13T07:40:38;30.20;54.80
19050;DHT22;9657;45.940;12.840;2023-07-13T07:43:06;30.20;54.80
19050;DHT22;9657;45.940;12.840;2023-07-13T07:45:33;30.20;54.80
19050;DHT22;9657;45.940;12.840;2023-07-13T07:48:00;30.20;54.90
19050;DHT22;9657;45.940;12.840;2023-07-13T07:50:28;30.20;54.90
19050;DHT22;9657;45.940;12.840;2023-07-13T07:52:55;30.20;54.90
19050;DHT22;9657;45.940;12.840;2023-07-13T07:55:25;30.20;54.90
19050;DHT22;9657;45.940;12.840;2023-07-13T07:57:52;30.20;55.70
19050;DHT22;9657;45.940;12.840;2023-07-13T08:00:19;30.20;55.00
19050;DHT22;9657;45.940;12.840;2023-07-13T08:02:47;30.20;55.00
19050;DHT22;9657;45.940;12.840;2023-07-13T08:05:14;30.20;55.00
19050;DHT22;9657;45.940;12.840;2023-07-13T08:07:41;30.20;55.10
19050;DHT22;9657;45.940;12.840;2023-07-13T08:10:09;30.20;55.10
19050;DHT22;9657;45.940;12.840;2023-07-13T08:12:38;30.20;55.10
19050;DHT22;9657;45.940;12.840;2023-07-13T08:15:07;30.20;55.20
19050;DHT22;9657;45.940;12.840;2023-07-13T08:17:35;30.20;55.30
19050;DHT22;9657;45.940;12.840;2023-07-13T08:20:03;30.20;55.30
19050;DHT22;9657;45.940;12.840;2023-07-13T08:22:30;30.20;55.30
19050;DHT22;9657;45.940;12.840;2023-07-13T08:24:59;30.20;55.40
19050;DHT22;9657;45.940;12.840;2023-07-13T08:27:27;30.20;55.40
19050;DHT22;9657;45.940;12.840;2023-07-13T08:29:56;30.20;55.40
19050;DHT22;9657;45.940;12.840;2023-07-13T08:32:23;30.20;55.50
19050;DHT22;9657;45.940;12.840;2023-07-13T08:34:51;30.20;55.50
19050;DHT22;9657;45.940;12.840;2023-07-13T08:37:18;30.20;55.50
19050;DHT22;9657;45.940;12.840;2023-07-13T08:39:46;30.20;55.60
19050;DHT22;9657;45.940;12.840;2023-07-13T08:42:20;30.20;55.60
19050;DHT22;9657;45.940;12.840;2023-07-13T08:44:56;30.20;55.60
19050;DHT22;9657;45.940;12.840;2023-07-13T08:47:28;30.20;55.70
19050;DHT22;9657;45.940;12.840;2023-07-13T08:49:58;30.20;55.70
19050;DHT22;9657;45.940;12.840;2023-07-13T08:52:32;30.20;55.70
19050;DHT22;9657;45.940;12.840;2023-07-13T08:55:05;30.20;55.80
19050;DHT22;9657;45.940;12.840;2023-07-13T08:57:36;30.20;55.80
19050;DHT22;9657;45.940;12.840;2023-07-13T09:00:07;30.20;55.80
19050;DHT22;9657;45.940;12.840;2023-07-13T09:02:42;30.20;55.90
19050;DHT22;9657;45.940;12.840;2023-07-13T09:05:13;30.20;56.00
19050;DHT22;9657;45.940;12.840;2023-07-13T09:07:51;30.20;56.00
19050;DHT22;9657;45.940;12.840;2023-07-13T09:10:25;30.20;56.00
19050;DHT22;9657;45.940;12.840;2023-07-13T09:13:04;30.20;56.00
19050;DHT22;9657;45.940;12.840;2023-07-13T09:15:39;30.20;56.00
19050;DHT22;9657;45.940;12.840;2023-07-13T09:18:11;30.20;56.00
19050;DHT22;9657;45.940;12.840;2023-07-13T09:20:46;30.20;56.00
19050;DHT22;9657;45.940;12.840;2023-07-13T09:23:17;30.20;56.10
19050;DHT22;9657;45.940;12.840;2023-07-13T09:25:48;30.20;56.00
19050;DHT22;9657;45.940;12.840;2023-07-13T09:28:20;30.20;56.00
19050;DHT22;9657;45.940;12.840;2023-07-13T09:30:56;30.20;56.00
19050;DHT22;9657;45.940;12.840;2023-07-13T09:33:25;30.20;56.00
19050;DHT22;9657;45.940;12.840;2023-07-13T09:35:54;30.20;56.00
19050;DHT22;9657;45.940;12.840;2023-07-13T09:38:24;30.20;56.00
19050;DHT22;9657;45.940;12.840;2023-07-13T09:41:02;30.20;56.00
19050;DHT22;9657;45.940;12.840;2023-07-13T09:43:34;30.20;56.00
19050;DHT22;9657;45.940;12.840;2023-07-13T09:46:03;30.20;56.00
19050;DHT22;9657;45.940;12.840;2023-07-13T09:48:34;30.20;56.00
19050;DHT22;9657;45.940;12.840;2023-07-13T09:51:10;30.20;56.00
19050;DHT22;9657;45.940;12.840;2023-07-13T09:53:41;30.20;56.00
19050;DHT22;9657;45.940;12.840;2023-07-13T09:56:19;30.20;56.00
19050;DHT22;9657;45.940;12.840;2023-07-13T09:58:46;30.20;56.00
19050;DHT22;9657;45.940;12.840;2023-07-13T10:01:15;30.20;56.00
19050;DHT22;9657;45.940;12.840;2023-07-13T10:03:52;30.20;56.00
19050;DHT22;9657;45.940;12.840;2023-07-13T10:06:21;30.20;56.00
19050;DHT22;9657;45.940;12.840;2023-07-13T10:08:50;30.20;56.00
19050;DHT22;9657;45.940;12.840;2023-07-13T10:11:19;30.20;56.10
19050;DHT22;9657;45.940;12.840;2023-07-13T10:13:52;30.20;56.10
19050;DHT22;9657;45.940;12.840;2023-07-13T10:16:23;30.20;56.10
19050;DHT22;9657;45.940;12.840;2023-07-13T10:18:55;30.20;56.10
19050;DHT22;9657;45.940;12.840;2023-07-13T10:21:26;30.20;56.10
19050;DHT22;9657;45.940;12.840;2023-07-13T10:23:56;30.20;56.10
19050;DHT22;9657;45.940;12.840;2023-07-13T10:26:26;30.20;56.10
19050;DHT22;9657;45.940;12.840;2023-07-13T10:28:59;30.10;56.10
19050;DHT22;9657;45.940;12.840;2023-07-13T10:31:31;30.20;56.20
19050;DHT22;9657;45.940;12.840;2023-07-13T10:33:58;30.20;56.20
19050;DHT22;9657;45.940;12.840;2023-07-13T10:36:32;30.20;56.30
19050;DHT22;9657;45.940;12.840;2023-07-13T10:39:02;30.20;56.30
19050;DHT22;9657;45.940;12.840;2023-07-13T10:41:32;30.20;57.00
19050;DHT22;9657;45.940;12.840;2023-07-13T10:44:01;30.10;56.30
19050;DHT22;9657;45.940;12.840;2023-07-13T10:46:30;30.20;56.30
19050;DHT22;9657;45.940;12.840;2023-07-13T10:48:59;30.20;56.40
19050;DHT22;9657;45.940;12.840;2023-07-13T10:51:28;30.20;56.30
19050;DHT22;9657;45.940;12.840;2023-07-13T10:54:16;30.10;56.30
19050;DHT22;9657;45.940;12.840;2023-07-13T10:56:44;30.20;56.40
19050;DHT22;9657;45.940;12.840;2023-07-13T10:59:14;30.20;56.40
19050;DHT22;9657;45.940;12.840;2023-07-13T11:01:51;30.20;56.40
19050;DHT22;9657;45.940;12.840;2023-07-13T11:04:21;30.20;56.40
19050;DHT22;9657;45.940;12.840;2023-07-13T11:06:52;30.10;56.40
19050;DHT22;9657;45.940;12.840;2023-07-13T11:09:32;30.10;56.40
19050;DHT22;9657;45.940;12.840;2023-07-13T11:12:00;30.10;56.40
19050;DHT22;9657;45.940;12.840;2023-07-13T11:14:31;30.10;56.40
19050;DHT22;9657;45.940;12.840;2023-07-13T11:20:23;30.10;56.30
19050;DHT22;9657;45.940;12.840;2023-07-13T11:22:52;30.10;56.40
19050;DHT22;9657;45.940;12.840;2023-07-13T11:25:34;30.10;56.40
19050;DHT22;9657;45.940;12.840;2023-07-13T11:28:24;30.20;56.40
19050;DHT22;9657;45.940;12.840;2023-07-13T11:34:01;30.10;56.30
19050;DHT22;9657;45.940;12.840;2023-07-13T11:36:35;30.10;56.30
19050;DHT22;9657;45.940;12.840;2023-07-13T11:39:16;30.20;56.30
19050;DHT22;9657;45.940;12.840;2023-07-13T11:41:48;30.20;56.20
19050;DHT22;9657;45.940;12.840;2023-07-13T11:44:18;30.10;56.20
19050;DHT22;9657;45.940;12.840;2023-07-13T11:46:47;30.10;56.20
19050;DHT22;9657;45.940;12.840;2023-07-13T11:49:18;30.20;56.10
19050;DHT22;9657;45.940;12.840;2023-07-13T11:51:47;30.20;56.20
19050;DHT22;9657;45.940;12.840;2023-07-13T11:54:24;30.20;56.20
19050;DHT22;9657;45.940;12.840;2023-07-13T11:56:54;30.20;56.20
19050;DHT22;9657;45.940;12.840;2023-07-13T11:59:23;30.20;56.10
19050;DHT22;9657;45.940;12.840;2023-07-13T12:01:54;30.20;56.10
19050;DHT22;9657;45.940;12.840;2023-07-13T12:04:25;30.20;56.10
19050;DHT22;9657;45.940;12.840;2023-07-13T12:06:57;30.20;56.10
19050;DHT22;9657;45.940;12.840;2023-07-13T12:09:27;30.20;56.10
19050;DHT22;9657;45.940;12.840;2023-07-13T12:11:57;30.20;56.10
19050;DHT22;9657;45.940;12.840;2023-07-13T12:14:25;30.20;56.10
19050;DHT22;9657;45.940;12.840;2023-07-13T12:16:53;30.20;56.10
19050;DHT22;9657;45.940;12.840;2023-07-13T12:19:23;30.20;56.10
19050;DHT22;9657;45.940;12.840;2023-07-13T12:21:55;30.20;56.10
19050;DHT22;9657;45.940;12.840;2023-07-13T12:24:25;30.30;56.10
19050;DHT22;9657;45.940;12.840;2023-07-13T12:26:54;30.20;56.10
19050;DHT22;9657;45.940;12.840;2023-07-13T12:29:22;30.20;56.00
19050;DHT22;9657;45.940;12.840;2023-07-13T12:31:49;30.30;56.10
19050;DHT22;9657;45.940;12.840;2023-07-13T12:34:19;30.30;56.10
19050;DHT22;9657;45.940;12.840;2023-07-13T12:36:48;30.30;56.10
19050;DHT22;9657;45.940;12.840;2023-07-13T12:39:17;30.30;56.10
19050;DHT22;9657;45.940;12.840;2023-07-13T12:41:48;30.30;56.00
19050;DHT22;9657;45.940;12.840;2023-07-13T12:44:17;30.30;56.00
19050;DHT22;9657;45.940;12.840;2023-07-13T12:46:53;30.40;56.70
19050;DHT22;9657;45.940;12.840;2023-07-13T12:49:24;30.30;56.70
19050;DHT22;9657;45.940;12.840;2023-07-13T12:51:56;30.30;56.00
19050;DHT22;9657;45.940;12.840;2023-07-13T12:54:25;30.40;56.00
19050;DHT22;9657;45.940;12.840;2023-07-13T12:56:54;30.30;55.90
19050;DHT22;9657;45.940;12.840;2023-07-13T12:59:25;30.30;55.90
19050;DHT22;9657;45.940;12.840;2023-07-13T13:01:55;30.30;55.90
19050;DHT22;9657;45.940;12.840;2023-07-13T13:04:22;30.30;55.90
19050;DHT22;9657;45.940;12.840;2023-07-13T13:07:00;30.40;56.60
19050;DHT22;9657;45.940;12.840;2023-07-13T13:09:28;30.40;56.00
19050;DHT22;9657;45.940;12.840;2023-07-13T13:11:56;30.40;56.00
19050;DHT22;9657;45.940;12.840;2023-07-13T13:14:23;30.40;56.00
19050;DHT22;9657;45.940;12.840;2023-07-13T13:16:51;30.40;55.90
19050;DHT22;9657;45.940;12.840;2023-07-13T13:19:23;30.40;55.90
19050;DHT22;9657;45.940;12.840;2023-07-13T13:21:54;30.40;55.90
19050;DHT22;9657;45.940;12.840;2023-07-13T13:24:24;30.40;55.80
19050;DHT22;9657;45.940;12.840;2023-07-13T13:26:53;30.40;55.80
19050;DHT22;9657;45.940;12.840;2023-07-13T13:29:24;30.40;55.90
19050;DHT22;9657;45.940;12.840;2023-07-13T13:31:52;30.40;55.90
19050;DHT22;9657;45.940;12.840;2023-07-13T13:34:20;30.40;55.80
19050;DHT22;9657;45.940;12.840;2023-07-13T13:36:49;30.50;55.90
19050;DHT22;9657;45.940;12.840;2023-07-13T13:39:23;30.40;55.80
19050;DHT22;9657;45.940;12.840;2023-07-13T13:41:52;30.50;55.80
19050;DHT22;9657;45.940;12.840;2023-07-13T13:44:20;30.50;55.80
19050;DHT22;9657;45.940;12.840;2023-07-13T13:46:52;30.50;55.80
19050;DHT22;9657;45.940;12.840;2023-07-13T13:49:21;30.50;55.80
19050;DHT22;9657;45.940;12.840;2023-07-13T13:51:49;30.50;55.80
19050;DHT22;9657;45.940;12.840;2023-07-13T13:54:18;30.50;55.70
19050;DHT22;9657;45.940;12.840;2023-07-13T13:56:46;30.50;55.70
19050;DHT22;9657;45.940;12.840;2023-07-13T13:59:13;30.50;55.70
19050;DHT22;9657;45.940;12.840;2023-07-13T14:01:42;30.50;55.70
19050;DHT22;9657;45.940;12.840;2023-07-13T14:04:15;30.50;55.70
19050;DHT22;9657;45.940;12.840;2023-07-13T14:06:43;30.50;55.70
19050;DHT22;9657;45.940;12.840;2023-07-13T14:09:11;30.50;55.70
19050;DHT22;9657;45.940;12.840;2023-07-13T14:11:40;30.50;55.70
19050;DHT22;9657;45.940;12.840;2023-07-13T14:14:12;30.60;55.70
19050;DHT22;9657;45.940;12.840;2023-07-13T14:16:41;30.50;55.70
19050;DHT22;9657;45.940;12.840;2023-07-13T14:19:12;30.50;55.70
19050;DHT22;9657;45.940;12.840;2023-07-13T14:21:40;30.50;55.60
19050;DHT22;9657;45.940;12.840;2023-07-13T14:24:07;30.50;55.70
19050;DHT22;9657;45.940;12.840;2023-07-13T14:26:37;30.50;55.70
19050;DHT22;9657;45.940;12.840;2023-07-13T14:29:10;30.60;55.70
19050;DHT22;9657;45.940;12.840;2023-07-13T14:31:39;30.60;55.70
19050;DHT22;9657;45.940;12.840;2023-07-13T14:34:07;30.60;55.70
19050;DHT22;9657;45.940;12.840;2023-07-13T14:36:38;30.60;55.70
19050;DHT22;9657;45.940;12.840;2023-07-13T14:39:12;30.60;55.80
19050;DHT22;9657;45.940;12.840;2023-07-13T14:41:39;30.60;55.80
19050;DHT22;9657;45.940;12.840;2023-07-13T14:44:11;30.60;55.80
19050;DHT22;9657;45.940;12.840;2023-07-13T14:46:39;30.60;55.80
19050;DHT22;9657;45.940;12.840;2023-07-13T14:49:11;30.60;55.80
19050;DHT22;9657;45.940;12.840;2023-07-13T14:51:41;30.60;55.90
19050;DHT22;9657;45.940;12.840;2023-07-13T14:54:09;30.60;55.90
19050;DHT22;9657;45.940;12.840;2023-07-13T14:56:37;30.60;55.90
19050;DHT22;9657;45.940;12.840;2023-07-13T14:59:04;30.60;55.90
19050;DHT22;9657;45.940;12.840;2023-07-13T15:01:33;30.60;55.90
19050;DHT22;9657;45.940;12.840;2023-07-13T15:04:01;30.60;55.90
19050;DHT22;9657;45.940;12.840;2023-07-13T15:06:28;30.60;56.00
19050;DHT22;9657;45.940;12.840;2023-07-13T15:08:58;30.60;55.90
19050;DHT22;9657;45.940;12.840;2023-07-13T15:11:25;30.60;55.90
19050;DHT22;9657;45.940;12.840;2023-07-13T15:13:52;30.60;55.90
19050;DHT22;9657;45.940;12.840;2023-07-13T15:16:22;30.60;56.00
19050;DHT22;9657;45.940;12.840;2023-07-13T15:18:50;30.60;56.00
19050;DHT22;9657;45.940;12.840;2023-07-13T15:21:20;30.60;56.00
19050;DHT22;9657;45.940;12.840;2023-07-13T15:23:47;30.60;56.00
19050;DHT22;9657;45.940;12.840;2023-07-13T15:26:17;30.50;55.90
19050;DHT22;9657;45.940;12.840;2023-07-13T15:28:45;30.50;55.90
19050;DHT22;9657;45.940;12.840;2023-07-13T15:31:19;30.60;56.00
19050;DHT22;9657;45.940;12.840;2023-07-13T15:33:48;30.50;55.90
19050;DHT22;9657;45.940;12.840;2023-07-13T15:36:16;30.50;56.00
19050;DHT22;9657;45.940;12.840;2023-07-13T15:38:44;30.50;56.00
19050;DHT22;9657;45.940;12.840;2023-07-13T15:41:18;30.50;56.00
19050;DHT22;9657;45.940;12.840;2023-07-13T15:43:48;30.50;56.00
19050;DHT22;9657;45.940;12.840;2023-07-13T15:46:17;30.50;56.10
19050;DHT22;9657;45.940;12.840;2023-07-13T15:48:45;30.50;56.00
19050;DHT22;9657;45.940;12.840;2023-07-13T15:51:20;30.50;56.10